PFEL

Details ICAO PFEL (ELI)
Name Elim
Region USA (Alaska)
Timezone America/Nome (UTC-9.0)
Plans Departing 1
Arriving 2
Stats Elevation 200 ft / 61 m (AMSL)
Location 64.614010° -162.270068°
Runways 1
Magnetic Variation 11.550° E
Sunrise 2017-12-13 20:44:47 UTC / 2017-12-13 11:44:47 Local
Sunset 2017-12-14 00:45:02 UTC / 2017-12-13 15:45:02 Local
Advertisement - Login to hide

Runways

ID Width Length Bearing (true) Bearing (mag) Surface Threshold Offset Overrun Length
01 59 ft / 18 m 3,003 ft / 915 m 29.00° 17.45° Gravel 0 ft / 0 m 0 ft / 0 m
19 59 ft / 18 m 3,003 ft / 915 m 209.00° 197.45° Gravel 0 ft / 0 m 0 ft / 0 m

Map

Weather


0- 5 10 15 20 25 30 35+ Temperature / ° C

Clouds and Precipitation
Forecast for 2017-12-13 18:00 UTC. Updated 3 minutes ago

Ground ~20,000 ft ~40,000 ft Winds

METAR

PFEL 131656Z AUTO 07004KT 10SM OVC027 02/00 A2947 RMK AO2 SLP981 T00220000 FZRANO

TAF

Not found
Warning: Do not use this data for real-world aviation or navigation. No guarantee of current accuracy is given.